createdAt,value
2023-05-06T00:00:51.382Z,14.906006
2023-05-06T00:02:01.052Z,14.95636
2023-05-06T00:03:09.791Z,14.936218
2023-05-06T00:04:19.419Z,14.966431
2023-05-06T00:05:29.156Z,14.986572
2023-05-06T00:06:37.844Z,14.966431
2023-05-06T00:07:45.498Z,14.845581
2023-05-06T00:08:54.184Z,14.845581
2023-05-06T00:10:03.986Z,14.875793
2023-05-06T00:11:12.563Z,14.936218
2023-05-06T00:12:22.233Z,14.966431
2023-05-06T00:13:30.903Z,15.016785
2023-05-06T00:14:38.616Z,14.966431
2023-05-06T00:15:48.292Z,14.996643
2023-05-06T00:16:56.960Z,15.016785
2023-05-06T00:18:06.681Z,15.036926
2023-05-06T00:19:16.335Z,15.026855
2023-05-06T00:20:26.015Z,14.996643
2023-05-06T00:21:35.667Z,14.996643
2023-05-06T00:22:44.369Z,14.996643
2023-05-06T00:23:53.101Z,14.966431
2023-05-06T00:25:02.767Z,14.916077
2023-05-06T00:26:11.527Z,14.95636
2023-05-06T00:27:19.114Z,14.986572
2023-05-06T00:28:28.827Z,14.996643
2023-05-06T00:29:36.520Z,14.95636
2023-05-06T00:30:46.208Z,14.996643
2023-05-06T00:31:54.882Z,14.906006
2023-05-06T00:33:03.608Z,14.845581
2023-05-06T00:34:13.273Z,14.855652
2023-05-06T00:35:21.003Z,14.936218
2023-05-06T00:36:30.652Z,14.885864
2023-05-06T00:37:40.353Z,14.885864
2023-05-06T00:38:48.055Z,14.906006
2023-05-06T00:39:57.739Z,14.95636
2023-05-06T00:41:07.412Z,14.916077
2023-05-06T00:42:17.178Z,14.845581
2023-05-06T00:43:25.862Z,14.765015
2023-05-06T00:44:33.522Z,14.724731
2023-05-06T00:45:42.265Z,14.634094
2023-05-06T00:46:51.899Z,14.694519
2023-05-06T00:48:00.655Z,14.664307
2023-05-06T00:49:10.260Z,14.664307
2023-05-06T00:50:18.927Z,14.634094
2023-05-06T00:51:27.666Z,14.553528
2023-05-06T00:52:37.314Z,14.533386
2023-05-06T00:53:46.000Z,14.483032
2023-05-06T00:54:55.676Z,14.472961
2023-05-06T00:56:05.351Z,14.472961
2023-05-06T00:57:15.059Z,14.503174
2023-05-06T00:58:24.807Z,14.412537
2023-05-06T00:59:34.413Z,14.33197
2023-05-06T01:00:43.073Z,14.352112
2023-05-06T01:01:51.771Z,14.372253
2023-05-06T01:02:59.573Z,14.321899
2023-05-06T01:04:08.125Z,14.301758
2023-05-06T01:05:17.872Z,14.33197
2023-05-06T01:06:25.488Z,14.291687
2023-05-06T01:07:35.169Z,14.33197
2023-05-06T01:08:43.853Z,14.352112
2023-05-06T01:09:51.514Z,14.321899
2023-05-06T01:11:01.197Z,14.301758
2023-05-06T01:12:08.864Z,14.281616
2023-05-06T01:13:17.590Z,14.231262
2023-05-06T01:14:27.313Z,14.170837
2023-05-06T01:15:35.920Z,14.180908
2023-05-06T01:16:45.620Z,14.170837
2023-05-06T01:17:54.402Z,14.221191
2023-05-06T01:19:02.212Z,14.261475
2023-05-06T01:20:11.936Z,14.170837
2023-05-06T01:21:19.637Z,14.180908
2023-05-06T01:22:28.325Z,14.170837
2023-05-06T01:23:38.079Z,14.110413
2023-05-06T01:24:45.752Z,14.070129
2023-05-06T01:25:54.580Z,14.049988
2023-05-06T01:27:04.256Z,14.070129
2023-05-06T01:28:11.947Z,14.039917
2023-05-06T01:29:21.603Z,14.039917
2023-05-06T01:30:30.361Z,14.039917
2023-05-06T01:31:39.035Z,14.049988
2023-05-06T01:32:48.761Z,14.070129
2023-05-06T01:33:57.440Z,14.070129
2023-05-06T01:35:07.258Z,13.969421
2023-05-06T01:36:15.886Z,13.868713
2023-05-06T01:37:24.544Z,13.808289
2023-05-06T01:38:34.203Z,13.768005
2023-05-06T01:39:41.897Z,13.747864
2023-05-06T01:40:51.557Z,13.82843
2023-05-06T01:42:01.215Z,13.768005
2023-05-06T01:43:10.894Z,13.747864
2023-05-06T01:44:20.574Z,13.888855
2023-05-06T01:45:29.300Z,13.94928
2023-05-06T01:46:38.042Z,13.919067
2023-05-06T01:47:47.578Z,13.898926
2023-05-06T01:48:55.244Z,13.989563
2023-05-06T01:50:03.904Z,13.999634
2023-05-06T01:51:13.559Z,13.999634
2023-05-06T01:52:21.339Z,13.969421
2023-05-06T01:53:31.070Z,13.858643
2023-05-06T01:54:40.735Z,13.82843
2023-05-06T01:55:48.394Z,13.888855
2023-05-06T01:56:58.094Z,13.919067
2023-05-06T01:58:06.822Z,13.868713
2023-05-06T01:59:15.553Z,13.768005
2023-05-06T02:00:25.248Z,13.627014
2023-05-06T02:01:33.932Z,13.707581
2023-05-06T02:02:43.830Z,13.778076
2023-05-06T02:03:52.491Z,13.586731
2023-05-06T02:05:02.023Z,13.707581
2023-05-06T02:06:11.770Z,13.788147
2023-05-06T02:07:19.509Z,13.808289
2023-05-06T02:08:28.212Z,13.848572
2023-05-06T02:09:36.864Z,13.788147
2023-05-06T02:10:45.531Z,13.82843
2023-05-06T02:11:56.708Z,13.808289
2023-05-06T02:13:06.107Z,13.858643
2023-05-06T02:14:15.749Z,13.898926
2023-05-06T02:15:25.421Z,13.929138
2023-05-06T02:16:34.174Z,13.94928
2023-05-06T02:17:43.833Z,13.94928
2023-05-06T02:18:53.517Z,13.858643
2023-05-06T02:20:02.184Z,13.858643
2023-05-06T02:21:11.863Z,13.808289
2023-05-06T02:22:19.616Z,13.788147
2023-05-06T02:23:29.288Z,13.778076
2023-05-06T02:24:37.988Z,13.778076
2023-05-06T02:25:47.698Z,13.788147
2023-05-06T02:26:57.413Z,13.808289
2023-05-06T02:28:06.082Z,13.788147
2023-05-06T02:29:14.768Z,13.848572
2023-05-06T02:30:24.468Z,13.888855
2023-05-06T02:31:33.291Z,13.858643
2023-05-06T02:32:43.022Z,13.848572
2023-05-06T02:33:52.690Z,13.82843
2023-05-06T02:35:01.400Z,13.747864
2023-05-06T02:36:11.044Z,13.717651
2023-05-06T02:37:18.689Z,13.788147
2023-05-06T02:38:27.416Z,13.737793
2023-05-06T02:39:37.105Z,13.82843
2023-05-06T02:40:45.828Z,13.858643
2023-05-06T02:41:55.486Z,13.788147
2023-05-06T02:43:03.199Z,13.848572
2023-05-06T02:44:10.849Z,13.82843
2023-05-06T02:45:20.589Z,13.616943
2023-05-06T02:46:29.232Z,13.556519
2023-05-06T02:47:37.991Z,13.717651
2023-05-06T02:48:47.580Z,13.667297
2023-05-06T02:49:55.285Z,13.616943
2023-05-06T02:51:05.058Z,13.707581
2023-05-06T02:52:14.624Z,13.667297
2023-05-06T02:53:23.314Z,13.747864
2023-05-06T02:54:33.049Z,13.808289
2023-05-06T02:55:41.717Z,13.82843
2023-05-06T02:56:50.388Z,13.768005
2023-05-06T02:58:00.083Z,13.717651
2023-05-06T02:59:07.768Z,13.707581
2023-05-06T03:00:17.465Z,13.647156
2023-05-06T03:01:27.149Z,13.667297
2023-05-06T03:02:34.870Z,13.677368
2023-05-06T03:03:44.559Z,13.778076
2023-05-06T03:04:53.256Z,13.69751
2023-05-06T03:06:01.896Z,13.707581
2023-05-06T03:07:11.677Z,13.677368
2023-05-06T03:08:19.224Z,13.627014
2023-05-06T03:09:28.914Z,13.647156
2023-05-06T03:10:37.687Z,13.69751
2023-05-06T03:11:46.350Z,13.69751
2023-05-06T03:12:56.029Z,13.677368
2023-05-06T03:14:03.733Z,13.627014
2023-05-06T03:15:13.524Z,13.586731
2023-05-06T03:16:23.143Z,13.647156
2023-05-06T03:17:31.828Z,13.627014
2023-05-06T03:18:41.508Z,13.69751
2023-05-06T03:19:50.189Z,13.586731
2023-05-06T03:20:57.919Z,13.536377
2023-05-06T03:22:08.505Z,13.596802
2023-05-06T03:23:18.410Z,13.596802
2023-05-06T03:24:26.892Z,13.647156
2023-05-06T03:25:36.561Z,13.667297
2023-05-06T03:26:45.222Z,13.627014
2023-05-06T03:27:54.993Z,13.667297
2023-05-06T03:29:03.647Z,13.677368
2023-05-06T03:30:12.317Z,13.647156
2023-05-06T03:31:22.055Z,13.616943
2023-05-06T03:32:30.806Z,13.677368
2023-05-06T03:33:40.457Z,13.596802
2023-05-06T03:34:50.127Z,13.556519
2023-05-06T03:35:59.822Z,13.536377
2023-05-06T03:37:09.580Z,13.516235
2023-05-06T03:38:18.248Z,13.536377
2023-05-06T03:39:27.052Z,13.556519
2023-05-06T03:40:36.576Z,13.586731
2023-05-06T03:41:44.251Z,13.616943
2023-05-06T03:42:52.966Z,13.586731
2023-05-06T03:44:02.694Z,13.586731
2023-05-06T03:45:11.510Z,13.526306
2023-05-06T03:46:21.035Z,13.496094
2023-05-06T03:47:29.753Z,13.526306
2023-05-06T03:48:38.399Z,13.486023
2023-05-06T03:49:48.082Z,13.465881
2023-05-06T03:50:55.759Z,13.536377
2023-05-06T03:52:04.522Z,13.526306
2023-05-06T03:53:14.204Z,13.566589
2023-05-06T03:54:22.880Z,13.627014
2023-05-06T03:55:32.645Z,13.616943
2023-05-06T03:56:42.283Z,13.496094
2023-05-06T03:57:50.949Z,13.465881
2023-05-06T03:59:00.614Z,13.405457
2023-05-06T04:00:09.312Z,13.516235
2023-05-06T04:01:19.095Z,13.586731
2023-05-06T04:02:27.827Z,13.586731
2023-05-06T04:03:36.605Z,13.586731
2023-05-06T04:04:46.233Z,13.405457
2023-05-06T04:05:53.937Z,13.345032
2023-05-06T04:07:03.627Z,13.284607
2023-05-06T04:08:11.342Z,13.345032
2023-05-06T04:09:20.105Z,13.385315
2023-05-06T04:10:29.777Z,13.274536
2023-05-06T04:11:38.641Z,13.284607
2023-05-06T04:12:47.250Z,13.153687
2023-05-06T04:13:57.666Z,13.284607
2023-05-06T04:15:07.424Z,13.224182
2023-05-06T04:16:17.107Z,13.163757
2023-05-06T04:17:26.659Z,13.224182
2023-05-06T04:18:36.402Z,13.234253
2023-05-06T04:19:46.128Z,13.254395
2023-05-06T04:20:53.796Z,13.254395
2023-05-06T04:22:03.488Z,13.334961
2023-05-06T04:23:13.226Z,13.496094
2023-05-06T04:24:21.923Z,13.616943
2023-05-06T04:25:31.573Z,13.536377
2023-05-06T04:26:40.220Z,13.627014
2023-05-06T04:27:48.928Z,13.677368
2023-05-06T04:28:58.634Z,13.677368
2023-05-06T04:30:06.317Z,13.667297
2023-05-06T04:31:15.103Z,13.717651
2023-05-06T04:32:24.866Z,13.707581
2023-05-06T04:33:32.627Z,13.677368
2023-05-06T04:34:42.295Z,13.647156
2023-05-06T04:35:51.005Z,13.647156
2023-05-06T04:36:59.684Z,13.616943
2023-05-06T04:38:09.385Z,13.566589
2023-05-06T04:39:17.043Z,13.627014
2023-05-06T04:40:25.732Z,13.586731
2023-05-06T04:41:35.469Z,13.596802
2023-05-06T04:42:44.166Z,13.556519
2023-05-06T04:43:53.930Z,13.596802
2023-05-06T04:45:03.590Z,13.596802
2023-05-06T04:46:13.279Z,13.536377
2023-05-06T04:47:23.000Z,13.556519
2023-05-06T04:48:30.658Z,13.596802
2023-05-06T04:49:39.364Z,13.667297
2023-05-06T04:50:49.037Z,13.677368
2023-05-06T04:51:57.774Z,13.647156
2023-05-06T04:53:07.462Z,13.465881
2023-05-06T04:54:16.159Z,13.455811
2023-05-06T04:55:23.850Z,13.566589
2023-05-06T04:56:33.617Z,13.586731
2023-05-06T04:57:42.310Z,13.586731
2023-05-06T04:58:51.028Z,13.586731
2023-05-06T05:00:00.719Z,13.677368
2023-05-06T05:01:08.454Z,13.667297
2023-05-06T05:02:18.238Z,13.82843
2023-05-06T05:03:26.976Z,13.82843
2023-05-06T05:04:35.528Z,13.868713
2023-05-06T05:05:45.217Z,14.029846
2023-05-06T05:06:53.924Z,13.969421
2023-05-06T05:08:02.587Z,14.070129
2023-05-06T05:09:12.253Z,14.070129
2023-05-06T05:10:20.915Z,14.180908
2023-05-06T05:11:30.679Z,14.221191
2023-05-06T05:12:39.345Z,14.170837
2023-05-06T05:13:47.086Z,14.221191
2023-05-06T05:14:57.779Z,14.221191
2023-05-06T05:16:07.632Z,14.221191
2023-05-06T05:17:16.383Z,14.170837
2023-05-06T05:18:25.938Z,14.20105
2023-05-06T05:19:34.617Z,14.20105
2023-05-06T05:20:43.352Z,14.150696
2023-05-06T05:21:52.027Z,14.110413
2023-05-06T05:23:00.697Z,14.251404
2023-05-06T05:24:10.369Z,14.321899
2023-05-06T05:25:18.115Z,14.372253
2023-05-06T05:26:27.786Z,14.442749
2023-05-06T05:27:37.441Z,14.513245
2023-05-06T05:28:46.140Z,14.58374
2023-05-06T05:29:55.839Z,14.472961
2023-05-06T05:31:05.556Z,14.503174
2023-05-06T05:32:15.309Z,14.513245
2023-05-06T05:33:24.871Z,14.513245
2023-05-06T05:34:33.548Z,14.58374
2023-05-06T05:35:43.324Z,14.58374
2023-05-06T05:36:52.044Z,14.372253
2023-05-06T05:38:01.738Z,14.321899
2023-05-06T05:39:11.404Z,14.33197
2023-05-06T05:40:21.091Z,14.321899
2023-05-06T05:41:28.729Z,14.281616
2023-05-06T05:42:38.375Z,14.291687
2023-05-06T05:43:46.082Z,14.251404
2023-05-06T05:44:55.770Z,14.362183
2023-05-06T05:46:05.461Z,14.472961
2023-05-06T05:47:15.113Z,14.432678
2023-05-06T05:48:24.888Z,14.553528
2023-05-06T05:49:34.469Z,14.543457
2023-05-06T05:50:43.147Z,14.513245
2023-05-06T05:51:52.847Z,14.664307
2023-05-06T05:53:00.554Z,14.694519
2023-05-06T05:54:08.219Z,14.724731
2023-05-06T05:55:17.903Z,14.684448
2023-05-06T05:56:27.569Z,14.543457
2023-05-06T05:57:37.295Z,14.543457
2023-05-06T05:58:44.983Z,14.533386
2023-05-06T05:59:54.643Z,14.603882
2023-05-06T06:01:03.342Z,14.724731
2023-05-06T06:02:10.998Z,14.664307
2023-05-06T06:03:20.831Z,14.694519
2023-05-06T06:04:29.485Z,14.684448
2023-05-06T06:05:38.134Z,14.684448
2023-05-06T06:06:47.823Z,14.724731
2023-05-06T06:07:55.520Z,14.785156
2023-05-06T06:09:05.196Z,14.906006
2023-05-06T06:10:14.908Z,15.016785
2023-05-06T06:11:22.582Z,15.057068
2023-05-06T06:12:32.316Z,15.097351
2023-05-06T06:13:41.040Z,15.137634
2023-05-06T06:14:49.731Z,15.036926
2023-05-06T06:15:59.521Z,15.016785
2023-05-06T06:17:07.098Z,15.016785
2023-05-06T06:18:16.799Z,15.097351
2023-05-06T06:19:24.525Z,15.057068
2023-05-06T06:20:34.260Z,15.016785
2023-05-06T06:21:42.930Z,15.036926
2023-05-06T06:22:52.665Z,15.036926
2023-05-06T06:24:02.342Z,15.167847
2023-05-06T06:25:10.359Z,15.167847
2023-05-06T06:26:19.889Z,15.097351
2023-05-06T06:27:28.547Z,15.137634
2023-05-06T06:28:37.232Z,15.268555
2023-05-06T06:29:46.900Z,15.349121
2023-05-06T06:30:55.767Z,15.278625
2023-05-06T06:32:05.523Z,15.288696
2023-05-06T06:33:15.347Z,15.288696
2023-05-06T06:34:25.031Z,15.288696
2023-05-06T06:35:34.883Z,15.218201
2023-05-06T06:36:43.630Z,15.248413
2023-05-06T06:37:52.301Z,15.328979
2023-05-06T06:39:02.002Z,15.490112
2023-05-06T06:40:10.729Z,15.58075
2023-05-06T06:41:20.213Z,15.570679
2023-05-06T06:42:30.669Z,15.59082
2023-05-06T06:43:38.355Z,15.490112
2023-05-06T06:44:48.070Z,15.540466
2023-05-06T06:45:57.794Z,15.621033
2023-05-06T06:47:06.451Z,15.701599
2023-05-06T06:48:16.168Z,15.731812
2023-05-06T06:49:24.902Z,15.721741
2023-05-06T06:50:33.630Z,15.772095
2023-05-06T06:51:43.325Z,15.83252
2023-05-06T06:52:52.126Z,15.862732
2023-05-06T06:54:01.656Z,15.882874
2023-05-06T06:55:11.599Z,15.923157
2023-05-06T06:56:19.062Z,15.943298
2023-05-06T06:57:28.764Z,16.003723
2023-05-06T06:58:36.423Z,16.013794
2023-05-06T06:59:45.100Z,15.923157
2023-05-06T07:00:53.794Z,15.84259
2023-05-06T07:02:01.427Z,15.903015
2023-05-06T07:03:11.160Z,15.882874
2023-05-06T07:04:20.840Z,15.721741
2023-05-06T07:05:28.492Z,15.822449
2023-05-06T07:06:38.159Z,15.983582
2023-05-06T07:07:46.821Z,16.134644
2023-05-06T07:08:56.678Z,16.195068
2023-05-06T07:10:06.196Z,16.174927
2023-05-06T07:11:14.865Z,16.023865
2023-05-06T07:12:24.507Z,16.154785
2023-05-06T07:13:33.208Z,16.134644
2023-05-06T07:14:41.899Z,16.104431
2023-05-06T07:15:51.612Z,16.174927
2023-05-06T07:16:59.288Z,16.255493
2023-05-06T07:18:08.003Z,16.34613
2023-05-06T07:19:17.637Z,16.325989
2023-05-06T07:20:26.308Z,16.386414
2023-05-06T07:21:36.051Z,16.497192
2023-05-06T07:22:44.768Z,16.577759
2023-05-06T07:23:53.507Z,16.567688
2023-05-06T07:25:03.309Z,16.648254
2023-05-06T07:26:11.925Z,16.738892
2023-05-06T07:27:21.659Z,16.809387
2023-05-06T07:28:31.323Z,16.900024
2023-05-06T07:29:40.052Z,16.940308
2023-05-06T07:30:49.758Z,17.010803
2023-05-06T07:31:59.458Z,17.232361
2023-05-06T07:33:08.149Z,17.192078
2023-05-06T07:34:17.798Z,17.242432
2023-05-06T07:35:25.457Z,17.393494
2023-05-06T07:36:34.239Z,17.423706
2023-05-06T07:37:43.940Z,17.625122
2023-05-06T07:38:52.605Z,17.756042
2023-05-06T07:40:02.270Z,17.826538
2023-05-06T07:41:11.024Z,17.917175
2023-05-06T07:42:18.646Z,17.937317
2023-05-06T07:43:28.324Z,17.947388
2023-05-06T07:44:37.004Z,18.09845
2023-05-06T07:45:45.699Z,18.068237
2023-05-06T07:46:55.492Z,18.219299
2023-05-06T07:48:04.116Z,18.340149
2023-05-06T07:49:13.753Z,18.531494
2023-05-06T07:50:23.464Z,18.581848
2023-05-06T07:51:31.153Z,18.450928
2023-05-06T07:52:40.838Z,18.380432
2023-05-06T07:53:49.480Z,18.662415
2023-05-06T07:54:59.161Z,18.813477
2023-05-06T07:56:07.876Z,18.934326
2023-05-06T07:57:16.672Z,18.773193
2023-05-06T07:58:26.206Z,18.863831
2023-05-06T07:59:35.880Z,18.581848
2023-05-06T08:00:45.563Z,18.652344
2023-05-06T08:01:54.260Z,18.581848
2023-05-06T08:03:01.993Z,18.068237
2023-05-06T08:04:11.712Z,18.179016
2023-05-06T08:05:20.274Z,18.370361
2023-05-06T08:06:29.930Z,18.561707
2023-05-06T08:07:39.613Z,18.662415
2023-05-06T08:08:47.276Z,18.924255
2023-05-06T08:09:56.968Z,18.883972
2023-05-06T08:11:06.614Z,19.085388
2023-05-06T08:12:14.317Z,19.135742
2023-05-06T08:13:24.027Z,19.024963
2023-05-06T08:14:32.664Z,18.924255
2023-05-06T08:15:42.324Z,18.883972
2023-05-06T08:16:51.997Z,18.833618
2023-05-06T08:18:07.308Z,18.813477
2023-05-06T08:19:11.323Z,18.662415
2023-05-06T08:20:20.036Z,18.863831
2023-05-06T08:21:27.670Z,18.964539
2023-05-06T08:22:37.321Z,19.186096
2023-05-06T08:23:45.039Z,19.296875
2023-05-06T08:24:54.714Z,19.296875
2023-05-06T08:26:04.388Z,19.397583
2023-05-06T08:27:13.066Z,19.437866
2023-05-06T08:28:24.050Z,19.135742
2023-05-06T08:29:32.452Z,19.065247
2023-05-06T08:30:41.101Z,19.10553
2023-05-06T08:31:50.903Z,19.256592
2023-05-06T08:32:59.317Z,19.256592
2023-05-06T08:34:07.981Z,19.437866
2023-05-06T08:35:17.640Z,19.558716
2023-05-06T08:36:25.324Z,19.760132
2023-05-06T08:37:35.011Z,19.86084
2023-05-06T08:38:42.690Z,20.021973
2023-05-06T08:39:51.325Z,19.468079
2023-05-06T08:41:01.001Z,19.256592
2023-05-06T08:42:09.654Z,19.176025
2023-05-06T08:43:18.368Z,19.437866
2023-05-06T08:44:28.071Z,19.578857
2023-05-06T08:45:36.849Z,19.558716
2023-05-06T08:46:46.407Z,19.790344
2023-05-06T08:47:56.150Z,19.709778
2023-05-06T08:49:04.793Z,19.911194
2023-05-06T08:50:14.440Z,19.99176
2023-05-06T08:51:24.827Z,20.132751
2023-05-06T08:52:31.820Z,19.891052
2023-05-06T08:53:41.479Z,19.699707
2023-05-06T08:54:50.139Z,19.699707
2023-05-06T08:55:59.818Z,19.709778
2023-05-06T08:57:09.671Z,19.840698
2023-05-06T08:58:17.145Z,20.072327
2023-05-06T08:59:26.843Z,20.24353
2023-05-06T09:00:35.526Z,19.790344
2023-05-06T09:01:44.332Z,19.538574
2023-05-06T09:02:54.000Z,19.578857
2023-05-06T09:04:02.560Z,19.659424
2023-05-06T09:05:12.560Z,19.891052
2023-05-06T09:06:20.990Z,19.961548
2023-05-06T09:07:28.663Z,19.850769
2023-05-06T09:08:38.323Z,19.699707
2023-05-06T09:09:47.996Z,20.032043
2023-05-06T09:10:56.714Z,20.213318
2023-05-06T09:12:06.422Z,20.142822
2023-05-06T09:13:15.162Z,20.062256
2023-05-06T09:14:24.797Z,20.021973
2023-05-06T09:15:33.501Z,20.092468
2023-05-06T09:16:42.188Z,20.092468
2023-05-06T09:17:51.877Z,20.183105
2023-05-06T09:19:00.544Z,20.102539
2023-05-06T09:20:10.218Z,20.293884
2023-05-06T09:21:19.899Z,20.4953
2023-05-06T09:22:27.566Z,20.414734
2023-05-06T09:23:37.314Z,20.475159
2023-05-06T09:24:45.982Z,20.626221
2023-05-06T09:25:53.690Z,20.515442
2023-05-06T09:27:03.391Z,20.344238
2023-05-06T09:28:12.082Z,20.4953
2023-05-06T09:29:19.783Z,20.444946
2023-05-06T09:30:29.452Z,20.374451
2023-05-06T09:31:37.134Z,20.263672
2023-05-06T09:32:46.799Z,20.021973
2023-05-06T09:33:56.605Z,20.062256
2023-05-06T09:35:05.197Z,20.253601
2023-05-06T09:36:14.892Z,20.475159
2023-05-06T09:37:22.586Z,20.444946
2023-05-06T09:38:31.295Z,20.344238
2023-05-06T09:39:41.017Z,20.515442
2023-05-06T09:40:49.674Z,20.515442
2023-05-06T09:41:59.367Z,20.444946
2023-05-06T09:43:08.055Z,20.36438
2023-05-06T09:44:15.747Z,20.475159
2023-05-06T09:45:25.436Z,20.61615
2023-05-06T09:46:34.174Z,20.263672
2023-05-06T09:47:43.873Z,20.394592
2023-05-06T09:48:53.542Z,20.24353
2023-05-06T09:50:02.331Z,20.4953
2023-05-06T09:51:11.916Z,20.716858
2023-05-06T09:52:19.576Z,20.666504
2023-05-06T09:53:29.311Z,20.646362
2023-05-06T09:54:37.959Z,20.918274
2023-05-06T09:55:45.627Z,21.200256
2023-05-06T09:56:55.358Z,21.421814
2023-05-06T09:58:03.091Z,21.361389
2023-05-06T09:59:11.765Z,21.522522
2023-05-06T10:00:21.445Z,21.834717
2023-05-06T10:01:36.453Z,22.015991
2023-05-06T10:02:39.822Z,22.146912
2023-05-06T10:03:48.475Z,22.177124
2023-05-06T10:04:56.170Z,22.177124
2023-05-06T10:06:06.081Z,22.287903
2023-05-06T10:07:15.559Z,22.277832
2023-05-06T10:08:25.264Z,22.438965
2023-05-06T10:09:33.929Z,22.700806
2023-05-06T10:10:42.629Z,22.720947
2023-05-06T10:11:52.386Z,22.539673
2023-05-06T10:13:01.053Z,22.449036
2023-05-06T10:14:09.726Z,22.438965
2023-05-06T10:15:18.377Z,22.388611
2023-05-06T10:16:27.061Z,22.136841
2023-05-06T10:17:35.792Z,22.167053
2023-05-06T10:18:45.368Z,22.136841
2023-05-06T10:19:54.052Z,22.197266
2023-05-06T10:21:02.761Z,22.318115
2023-05-06T10:22:11.524Z,22.590027
2023-05-06T10:23:20.126Z,22.831726
2023-05-06T10:24:29.820Z,22.872009
2023-05-06T10:25:37.554Z,22.811584
2023-05-06T10:26:46.309Z,23.153992
2023-05-06T10:27:55.887Z,23.274841
2023-05-06T10:29:04.585Z,23.476257
2023-05-06T10:30:14.300Z,23.617249
2023-05-06T10:31:23.050Z,23.546753
2023-05-06T10:32:31.668Z,23.476257
2023-05-06T10:33:42.281Z,23.355408
2023-05-06T10:34:50.094Z,23.38562
2023-05-06T10:35:59.761Z,23.405762
2023-05-06T10:37:09.435Z,23.365479
2023-05-06T10:38:19.162Z,23.315125
2023-05-06T10:39:28.887Z,23.174133
2023-05-06T10:40:38.618Z,23.315125
2023-05-06T10:41:47.310Z,23.184204
2023-05-06T10:42:57.009Z,23.435974
2023-05-06T10:44:05.722Z,23.909302
2023-05-06T10:45:13.413Z,23.869019
2023-05-06T10:46:23.165Z,24.231567
2023-05-06T10:47:31.885Z,24.322205
2023-05-06T10:48:40.541Z,24.322205
2023-05-06T10:49:50.273Z,24.291992
2023-05-06T10:50:58.979Z,24.281921
2023-05-06T10:52:08.643Z,24.432983
2023-05-06T10:53:17.386Z,24.634399
2023-05-06T10:54:26.303Z,24.805603
2023-05-06T10:55:35.791Z,24.845886
2023-05-06T10:56:46.319Z,24.986877
2023-05-06T10:57:54.113Z,25.379639
2023-05-06T10:59:03.842Z,25.440063
2023-05-06T11:00:11.517Z,25.470276
2023-05-06T11:01:21.224Z,25.258789
2023-05-06T11:02:30.923Z,25.349426
2023-05-06T11:03:38.616Z,25.550842
2023-05-06T11:04:48.320Z,25.591125
2023-05-06T11:05:57.112Z,25.661621
2023-05-06T11:07:05.829Z,25.7724
2023-05-06T11:08:14.580Z,25.409851
2023-05-06T11:09:23.271Z,25.681763
2023-05-06T11:10:33.001Z,25.963745
2023-05-06T11:11:42.625Z,25.90332
2023-05-06T11:12:51.466Z,25.379639
2023-05-06T11:14:01.189Z,25.137939
2023-05-06T11:15:09.055Z,24.704895
2023-05-06T11:16:17.634Z,24.281921
2023-05-06T11:17:27.360Z,23.929443
2023-05-06T11:18:36.030Z,23.838806
2023-05-06T11:19:45.714Z,24.181213
2023-05-06T11:20:54.377Z,24.322205
2023-05-06T11:22:02.118Z,24.161072
2023-05-06T11:23:11.796Z,24.281921
2023-05-06T11:24:20.468Z,24.181213
2023-05-06T11:25:30.143Z,24.161072
2023-05-06T11:26:39.916Z,24.100647
2023-05-06T11:27:48.954Z,24.291992
2023-05-06T11:28:57.264Z,24.281921
2023-05-06T11:30:05.928Z,24.584045
2023-05-06T11:31:13.672Z,24.704895
2023-05-06T11:32:23.387Z,24.886169
2023-05-06T11:33:31.035Z,25.007019
2023-05-06T11:34:39.745Z,25.037231
2023-05-06T11:35:49.522Z,24.755249
2023-05-06T11:36:57.286Z,24.573975
2023-05-06T11:38:07.045Z,24.553833
2023-05-06T11:39:15.653Z,24.775391
2023-05-06T11:40:23.358Z,25.077515
2023-05-06T11:41:33.190Z,25.429993
2023-05-06T11:42:40.994Z,25.842896
2023-05-06T11:43:49.700Z,26.134949
2023-05-06T11:44:59.351Z,26.27594
2023-05-06T11:46:08.103Z,25.993958
2023-05-06T11:47:17.825Z,25.621338
2023-05-06T11:48:26.531Z,25.228577
2023-05-06T11:49:36.871Z,25.349426
2023-05-06T11:50:44.928Z,25.097656
2023-05-06T11:51:52.737Z,24.916382
2023-05-06T11:53:02.446Z,24.835815
2023-05-06T11:54:11.191Z,24.584045
2023-05-06T11:55:20.896Z,24.584045
2023-05-06T11:56:30.559Z,24.795532
2023-05-06T11:57:40.265Z,25.349426
2023-05-06T11:58:50.006Z,25.7724
2023-05-06T11:59:59.829Z,26.15509
2023-05-06T12:01:09.567Z,26.437073
2023-05-06T12:02:19.336Z,26.134949
2023-05-06T12:03:28.147Z,25.429993
2023-05-06T12:04:36.775Z,25.168152
2023-05-06T12:05:46.433Z,24.916382
2023-05-06T12:06:55.143Z,24.805603
2023-05-06T12:08:10.728Z,24.584045
2023-05-06T12:09:15.838Z,24.402771
2023-05-06T12:10:23.484Z,24.3927
2023-05-06T12:11:33.264Z,24.422913
2023-05-06T12:12:43.035Z,24.241638
2023-05-06T12:13:52.663Z,24.100647
2023-05-06T12:15:02.326Z,24.281921
2023-05-06T12:16:10.470Z,24.735107
2023-05-06T12:17:20.143Z,25.510559
2023-05-06T12:18:28.900Z,26.27594
2023-05-06T12:19:37.568Z,26.970825
2023-05-06T12:20:47.252Z,27.172241
2023-05-06T12:21:54.908Z,27.625427
2023-05-06T12:23:03.649Z,27.675781
2023-05-06T12:24:12.381Z,27.695923
2023-05-06T12:25:19.997Z,27.695923
2023-05-06T12:26:29.756Z,28.219604
2023-05-06T12:27:39.512Z,27.826843
2023-05-06T12:28:48.307Z,28.189392
2023-05-06T12:29:58.115Z,28.763428
2023-05-06T12:31:07.816Z,29.035339
2023-05-06T12:32:17.414Z,28.763428
2023-05-06T12:33:27.168Z,28.984985
2023-05-06T12:34:34.832Z,28.370667
2023-05-06T12:35:44.494Z,28.41095
2023-05-06T12:36:53.183Z,28.521729
2023-05-06T12:38:01.953Z,28.703003
2023-05-06T12:39:11.656Z,28.572083
2023-05-06T12:40:20.373Z,28.743286
2023-05-06T12:41:30.197Z,29.015198
2023-05-06T12:42:40.051Z,28.763428
2023-05-06T12:43:49.741Z,28.843994
2023-05-06T12:44:59.577Z,28.229675
2023-05-06T12:46:09.212Z,28.229675
2023-05-06T12:47:17.956Z,27.957764
2023-05-06T12:48:27.619Z,27.514648
2023-05-06T12:49:35.431Z,27.202454
2023-05-06T12:50:44.091Z,26.698914
2023-05-06T12:51:53.793Z,26.40686
2023-05-06T12:53:02.463Z,26.27594
2023-05-06T12:54:12.172Z,26.034241
2023-05-06T12:55:21.850Z,25.873108
2023-05-06T12:56:29.614Z,25.621338
2023-05-06T12:57:40.230Z,25.379639
2023-05-06T12:58:49.913Z,25.218506
2023-05-06T12:59:59.632Z,25.208435
2023-05-06T13:01:09.523Z,25.067444
2023-05-06T13:02:19.133Z,25.359497
2023-05-06T13:03:28.791Z,25.591125
2023-05-06T13:04:38.472Z,25.540771
2023-05-06T13:05:47.181Z,25.329285
2023-05-06T13:06:56.914Z,24.976807
2023-05-06T13:08:06.648Z,24.725037
2023-05-06T13:09:16.347Z,24.573975
2023-05-06T13:10:26.095Z,24.402771